sensor_id;sensor_type;location;lat;lon;timestamp;P1;durP1;ratioP1;P2;durP2;ratioP2
4547;SDS011;2286;51.570;7.090;2024-02-26T00:01:04;7.20;;;3.73;;
4547;SDS011;2286;51.570;7.090;2024-02-26T00:03:31;5.03;;;2.70;;
4547;SDS011;2286;51.570;7.090;2024-02-26T00:06:00;3.40;;;3.10;;
4547;SDS011;2286;51.570;7.090;2024-02-26T00:08:27;3.50;;;3.20;;
4547;SDS011;2286;51.570;7.090;2024-02-26T00:10:54;3.53;;;3.20;;
4547;SDS011;2286;51.570;7.090;2024-02-26T00:13:21;3.07;;;2.87;;
4547;SDS011;2286;51.570;7.090;2024-02-26T00:15:47;3.30;;;2.53;;
4547;SDS011;2286;51.570;7.090;2024-02-26T00:18:16;2.73;;;2.53;;
4547;SDS011;2286;51.570;7.090;2024-02-26T00:20:42;6.07;;;3.00;;
4547;SDS011;2286;51.570;7.090;2024-02-26T00:23:09;3.07;;;2.73;;
4547;SDS011;2286;51.570;7.090;2024-02-26T00:25:37;3.90;;;3.20;;
4547;SDS011;2286;51.570;7.090;2024-02-26T00:28:04;2.90;;;2.70;;
4547;SDS011;2286;51.570;7.090;2024-02-26T00:30:31;3.60;;;3.30;;
4547;SDS011;2286;51.570;7.090;2024-02-26T00:32:57;2.53;;;2.30;;
4547;SDS011;2286;51.570;7.090;2024-02-26T00:35:26;3.50;;;3.20;;
4547;SDS011;2286;51.570;7.090;2024-02-26T00:37:52;3.73;;;3.40;;
4547;SDS011;2286;51.570;7.090;2024-02-26T00:40:19;2.93;;;2.67;;
4547;SDS011;2286;51.570;7.090;2024-02-26T00:42:46;3.33;;;2.63;;
4547;SDS011;2286;51.570;7.090;2024-02-26T00:45:13;4.00;;;3.13;;
4547;SDS011;2286;51.570;7.090;2024-02-26T00:47:41;3.43;;;3.17;;
4547;SDS011;2286;51.570;7.090;2024-02-26T00:50:09;3.07;;;2.87;;
4547;SDS011;2286;51.570;7.090;2024-02-26T00:52:37;3.27;;;2.80;;
4547;SDS011;2286;51.570;7.090;2024-02-26T00:55:05;3.00;;;2.80;;
4547;SDS011;2286;51.570;7.090;2024-02-26T00:57:32;3.90;;;3.50;;
4547;SDS011;2286;51.570;7.090;2024-02-26T00:59:59;4.60;;;3.00;;
4547;SDS011;2286;51.570;7.090;2024-02-26T01:02:26;6.53;;;3.53;;
4547;SDS011;2286;51.570;7.090;2024-02-26T01:04:53;3.00;;;2.70;;
4547;SDS011;2286;51.570;7.090;2024-02-26T01:07:20;3.43;;;2.97;;
4547;SDS011;2286;51.570;7.090;2024-02-26T01:09:48;4.03;;;2.87;;
4547;SDS011;2286;51.570;7.090;2024-02-26T01:12:15;3.20;;;2.80;;
4547;SDS011;2286;51.570;7.090;2024-02-26T01:14:42;4.23;;;2.80;;
4547;SDS011;2286;51.570;7.090;2024-02-26T01:17:08;2.43;;;2.23;;
4547;SDS011;2286;51.570;7.090;2024-02-26T01:19:35;5.00;;;2.60;;
4547;SDS011;2286;51.570;7.090;2024-02-26T01:22:02;2.90;;;2.70;;
4547;SDS011;2286;51.570;7.090;2024-02-26T01:24:29;3.63;;;2.97;;
4547;SDS011;2286;51.570;7.090;2024-02-26T01:26:57;2.77;;;2.40;;
4547;SDS011;2286;51.570;7.090;2024-02-26T01:29:24;3.80;;;2.73;;
4547;SDS011;2286;51.570;7.090;2024-02-26T01:31:50;3.43;;;2.80;;
4547;SDS011;2286;51.570;7.090;2024-02-26T01:34:17;2.70;;;2.50;;
4547;SDS011;2286;51.570;7.090;2024-02-26T01:36:44;3.73;;;2.80;;
4547;SDS011;2286;51.570;7.090;2024-02-26T01:39:11;3.00;;;2.50;;
4547;SDS011;2286;51.570;7.090;2024-02-26T01:41:38;2.40;;;2.20;;
4547;SDS011;2286;51.570;7.090;2024-02-26T01:44:06;3.47;;;2.73;;
4547;SDS011;2286;51.570;7.090;2024-02-26T01:46:34;2.97;;;2.40;;
4547;SDS011;2286;51.570;7.090;2024-02-26T01:49:02;3.07;;;2.77;;
4547;SDS011;2286;51.570;7.090;2024-02-26T01:51:29;2.83;;;2.63;;
4547;SDS011;2286;51.570;7.090;2024-02-26T01:53:58;2.57;;;2.37;;
4547;SDS011;2286;51.570;7.090;2024-02-26T01:56:26;3.20;;;2.23;;
4547;SDS011;2286;51.570;7.090;2024-02-26T01:58:56;2.53;;;2.33;;
4547;SDS011;2286;51.570;7.090;2024-02-26T02:01:25;2.80;;;2.33;;
4547;SDS011;2286;51.570;7.090;2024-02-26T02:03:54;2.53;;;2.23;;
4547;SDS011;2286;51.570;7.090;2024-02-26T02:06:22;3.40;;;2.40;;
4547;SDS011;2286;51.570;7.090;2024-02-26T02:08:49;2.50;;;2.30;;
4547;SDS011;2286;51.570;7.090;2024-02-26T02:11:16;2.13;;;1.90;;
4547;SDS011;2286;51.570;7.090;2024-02-26T02:13:43;2.10;;;1.93;;
4547;SDS011;2286;51.570;7.090;2024-02-26T02:16:10;2.53;;;2.33;;
4547;SDS011;2286;51.570;7.090;2024-02-26T02:18:38;2.70;;;2.40;;
4547;SDS011;2286;51.570;7.090;2024-02-26T02:21:06;3.80;;;2.37;;
4547;SDS011;2286;51.570;7.090;2024-02-26T02:23:33;2.60;;;2.40;;
4547;SDS011;2286;51.570;7.090;2024-02-26T02:26:00;2.63;;;2.43;;
4547;SDS011;2286;51.570;7.090;2024-02-26T02:28:27;3.00;;;2.03;;
4547;SDS011;2286;51.570;7.090;2024-02-26T02:30:54;2.30;;;2.10;;
4547;SDS011;2286;51.570;7.090;2024-02-26T02:33:21;2.90;;;2.70;;
4547;SDS011;2286;51.570;7.090;2024-02-26T02:35:48;5.87;;;2.93;;
4547;SDS011;2286;51.570;7.090;2024-02-26T02:38:17;2.40;;;2.20;;
4547;SDS011;2286;51.570;7.090;2024-02-26T02:40:43;2.50;;;2.40;;
4547;SDS011;2286;51.570;7.090;2024-02-26T02:43:10;2.57;;;2.30;;
4547;SDS011;2286;51.570;7.090;2024-02-26T02:45:37;2.43;;;2.23;;
4547;SDS011;2286;51.570;7.090;2024-02-26T02:48:04;3.63;;;2.73;;
4547;SDS011;2286;51.570;7.090;2024-02-26T02:50:31;2.23;;;2.03;;
4547;SDS011;2286;51.570;7.090;2024-02-26T02:52:58;4.37;;;2.20;;
4547;SDS011;2286;51.570;7.090;2024-02-26T02:55:26;2.87;;;2.63;;
4547;SDS011;2286;51.570;7.090;2024-02-26T02:57:53;2.83;;;2.10;;
4547;SDS011;2286;51.570;7.090;2024-02-26T03:00:20;2.63;;;2.40;;
4547;SDS011;2286;51.570;7.090;2024-02-26T03:02:47;3.43;;;2.70;;
4547;SDS011;2286;51.570;7.090;2024-02-26T03:05:14;3.83;;;2.90;;
4547;SDS011;2286;51.570;7.090;2024-02-26T03:07:40;2.60;;;2.40;;
4547;SDS011;2286;51.570;7.090;2024-02-26T03:10:07;2.03;;;1.93;;
4547;SDS011;2286;51.570;7.090;2024-02-26T03:12:36;2.50;;;2.30;;
4547;SDS011;2286;51.570;7.090;2024-02-26T03:15:02;2.13;;;1.93;;
4547;SDS011;2286;51.570;7.090;2024-02-26T03:17:29;2.27;;;2.07;;
4547;SDS011;2286;51.570;7.090;2024-02-26T03:19:56;2.50;;;2.30;;
4547;SDS011;2286;51.570;7.090;2024-02-26T03:22:23;3.90;;;2.23;;
4547;SDS011;2286;51.570;7.090;2024-02-26T03:24:50;2.00;;;1.80;;
4547;SDS011;2286;51.570;7.090;2024-02-26T03:27:16;1.80;;;1.70;;
4547;SDS011;2286;51.570;7.090;2024-02-26T03:29:45;1.60;;;1.50;;
4547;SDS011;2286;51.570;7.090;2024-02-26T03:32:13;1.83;;;1.60;;
4547;SDS011;2286;51.570;7.090;2024-02-26T03:34:39;2.20;;;2.00;;
4547;SDS011;2286;51.570;7.090;2024-02-26T03:37:06;2.13;;;1.97;;
4547;SDS011;2286;51.570;7.090;2024-02-26T03:39:35;1.90;;;1.80;;
4547;SDS011;2286;51.570;7.090;2024-02-26T03:42:02;2.70;;;1.50;;
4547;SDS011;2286;51.570;7.090;2024-02-26T03:44:29;1.97;;;1.87;;
4547;SDS011;2286;51.570;7.090;2024-02-26T03:46:58;2.33;;;2.20;;
4547;SDS011;2286;51.570;7.090;2024-02-26T03:49:25;1.90;;;1.80;;
4547;SDS011;2286;51.570;7.090;2024-02-26T03:51:52;2.27;;;2.10;;
4547;SDS011;2286;51.570;7.090;2024-02-26T03:54:19;2.20;;;2.00;;
4547;SDS011;2286;51.570;7.090;2024-02-26T03:56:46;2.20;;;2.00;;
4547;SDS011;2286;51.570;7.090;2024-02-26T03:59:13;2.67;;;2.47;;
4547;SDS011;2286;51.570;7.090;2024-02-26T04:01:44;2.40;;;2.20;;
4547;SDS011;2286;51.570;7.090;2024-02-26T04:04:13;2.40;;;2.30;;
4547;SDS011;2286;51.570;7.090;2024-02-26T04:06:43;2.27;;;2.10;;
4547;SDS011;2286;51.570;7.090;2024-02-26T04:09:11;2.20;;;2.10;;
4547;SDS011;2286;51.570;7.090;2024-02-26T04:11:38;1.90;;;1.70;;
4547;SDS011;2286;51.570;7.090;2024-02-26T04:14:05;2.83;;;2.53;;
4547;SDS011;2286;51.570;7.090;2024-02-26T04:16:33;2.20;;;2.00;;
4547;SDS011;2286;51.570;7.090;2024-02-26T04:19:00;2.47;;;2.27;;
4547;SDS011;2286;51.570;7.090;2024-02-26T04:21:29;3.03;;;2.47;;
4547;SDS011;2286;51.570;7.090;2024-02-26T04:23:56;3.07;;;2.63;;
4547;SDS011;2286;51.570;7.090;2024-02-26T04:26:26;2.20;;;2.10;;
4547;SDS011;2286;51.570;7.090;2024-02-26T04:28:53;2.17;;;2.03;;
4547;SDS011;2286;51.570;7.090;2024-02-26T04:31:20;2.53;;;2.33;;
4547;SDS011;2286;51.570;7.090;2024-02-26T04:33:47;3.30;;;2.30;;
4547;SDS011;2286;51.570;7.090;2024-02-26T04:36:14;3.27;;;3.00;;
4547;SDS011;2286;51.570;7.090;2024-02-26T04:38:43;2.50;;;2.30;;
4547;SDS011;2286;51.570;7.090;2024-02-26T04:41:10;2.70;;;2.13;;
4547;SDS011;2286;51.570;7.090;2024-02-26T04:43:37;2.03;;;1.93;;
4547;SDS011;2286;51.570;7.090;2024-02-26T04:46:06;2.73;;;2.53;;
4547;SDS011;2286;51.570;7.090;2024-02-26T04:48:34;3.23;;;2.20;;
4547;SDS011;2286;51.570;7.090;2024-02-26T04:51:01;2.00;;;1.80;;
4547;SDS011;2286;51.570;7.090;2024-02-26T04:53:28;2.10;;;2.00;;
4547;SDS011;2286;51.570;7.090;2024-02-26T04:55:57;2.30;;;2.10;;
4547;SDS011;2286;51.570;7.090;2024-02-26T04:58:24;3.77;;;2.40;;
4547;SDS011;2286;51.570;7.090;2024-02-26T05:00:51;2.60;;;2.40;;
4547;SDS011;2286;51.570;7.090;2024-02-26T05:03:18;2.23;;;2.03;;
4547;SDS011;2286;51.570;7.090;2024-02-26T05:05:45;2.63;;;2.43;;
4547;SDS011;2286;51.570;7.090;2024-02-26T05:08:12;2.53;;;2.40;;
4547;SDS011;2286;51.570;7.090;2024-02-26T05:10:39;2.70;;;2.50;;
4547;SDS011;2286;51.570;7.090;2024-02-26T05:13:07;4.23;;;2.53;;
4547;SDS011;2286;51.570;7.090;2024-02-26T05:15:34;5.10;;;4.60;;
4547;SDS011;2286;51.570;7.090;2024-02-26T05:18:01;3.40;;;3.10;;
4547;SDS011;2286;51.570;7.090;2024-02-26T05:20:29;5.57;;;5.17;;
4547;SDS011;2286;51.570;7.090;2024-02-26T05:22:56;4.60;;;4.20;;
4547;SDS011;2286;51.570;7.090;2024-02-26T05:25:24;3.60;;;3.30;;
4547;SDS011;2286;51.570;7.090;2024-02-26T05:27:51;3.40;;;3.20;;
4547;SDS011;2286;51.570;7.090;2024-02-26T05:30:20;3.40;;;3.10;;
4547;SDS011;2286;51.570;7.090;2024-02-26T05:32:47;3.40;;;2.73;;
4547;SDS011;2286;51.570;7.090;2024-02-26T05:35:14;3.27;;;2.70;;
4547;SDS011;2286;51.570;7.090;2024-02-26T05:37:41;3.23;;;3.03;;
4547;SDS011;2286;51.570;7.090;2024-02-26T05:40:08;4.20;;;3.37;;
4547;SDS011;2286;51.570;7.090;2024-02-26T05:42:35;5.00;;;3.73;;
4547;SDS011;2286;51.570;7.090;2024-02-26T05:45:03;3.77;;;3.47;;
4547;SDS011;2286;51.570;7.090;2024-02-26T05:47:33;3.50;;;3.20;;
4547;SDS011;2286;51.570;7.090;2024-02-26T05:50:00;3.10;;;2.90;;
4547;SDS011;2286;51.570;7.090;2024-02-26T05:52:27;3.60;;;3.27;;
4547;SDS011;2286;51.570;7.090;2024-02-26T05:54:54;3.50;;;3.20;;
4547;SDS011;2286;51.570;7.090;2024-02-26T05:57:21;4.50;;;3.80;;
4547;SDS011;2286;51.570;7.090;2024-02-26T05:59:48;5.13;;;3.90;;
4547;SDS011;2286;51.570;7.090;2024-02-26T06:02:15;4.80;;;4.40;;
4547;SDS011;2286;51.570;7.090;2024-02-26T06:04:44;3.40;;;3.20;;
4547;SDS011;2286;51.570;7.090;2024-02-26T06:07:12;3.83;;;3.13;;
4547;SDS011;2286;51.570;7.090;2024-02-26T06:09:39;3.67;;;3.40;;
4547;SDS011;2286;51.570;7.090;2024-02-26T06:12:06;5.50;;;5.00;;
4547;SDS011;2286;51.570;7.090;2024-02-26T06:14:33;4.13;;;3.80;;
4547;SDS011;2286;51.570;7.090;2024-02-26T06:17:01;3.87;;;3.57;;
4547;SDS011;2286;51.570;7.090;2024-02-26T06:19:28;4.90;;;4.40;;
4547;SDS011;2286;51.570;7.090;2024-02-26T06:21:56;3.58;;;3.28;;
4547;SDS011;2286;51.570;7.090;2024-02-26T06:24:23;4.00;;;3.67;;
4547;SDS011;2286;51.570;7.090;2024-02-26T06:26:50;3.30;;;3.10;;
4547;SDS011;2286;51.570;7.090;2024-02-26T06:29:17;4.10;;;3.80;;
4547;SDS011;2286;51.570;7.090;2024-02-26T06:31:44;3.40;;;3.10;;
4547;SDS011;2286;51.570;7.090;2024-02-26T06:34:12;3.80;;;3.20;;
4547;SDS011;2286;51.570;7.090;2024-02-26T06:36:39;4.17;;;3.80;;
4547;SDS011;2286;51.570;7.090;2024-02-26T06:39:08;3.70;;;3.50;;
4547;SDS011;2286;51.570;7.090;2024-02-26T06:41:36;3.53;;;3.30;;
4547;SDS011;2286;51.570;7.090;2024-02-26T06:44:04;4.27;;;3.83;;
4547;SDS011;2286;51.570;7.090;2024-02-26T06:46:31;3.77;;;3.47;;
4547;SDS011;2286;51.570;7.090;2024-02-26T06:48:58;3.10;;;2.90;;
4547;SDS011;2286;51.570;7.090;2024-02-26T06:51:25;3.67;;;3.13;;
4547;SDS011;2286;51.570;7.090;2024-02-26T06:53:52;3.30;;;3.07;;
4547;SDS011;2286;51.570;7.090;2024-02-26T06:56:20;3.57;;;3.37;;
4547;SDS011;2286;51.570;7.090;2024-02-26T06:58:47;3.30;;;3.07;;
4547;SDS011;2286;51.570;7.090;2024-02-26T07:01:14;2.90;;;2.70;;
4547;SDS011;2286;51.570;7.090;2024-02-26T07:03:41;4.03;;;3.63;;
4547;SDS011;2286;51.570;7.090;2024-02-26T07:06:08;4.93;;;2.80;;
4547;SDS011;2286;51.570;7.090;2024-02-26T07:08:37;3.60;;;3.10;;
4547;SDS011;2286;51.570;7.090;2024-02-26T07:11:06;4.23;;;2.97;;
4547;SDS011;2286;51.570;7.090;2024-02-26T07:13:35;3.53;;;3.23;;
4547;SDS011;2286;51.570;7.090;2024-02-26T07:16:02;3.60;;;3.30;;
4547;SDS011;2286;51.570;7.090;2024-02-26T07:18:30;2.77;;;2.57;;
4547;SDS011;2286;51.570;7.090;2024-02-26T07:20:57;3.90;;;3.60;;
4547;SDS011;2286;51.570;7.090;2024-02-26T07:23:24;5.00;;;4.57;;
4547;SDS011;2286;51.570;7.090;2024-02-26T07:25:51;3.80;;;3.47;;
4547;SDS011;2286;51.570;7.090;2024-02-26T07:28:18;4.60;;;3.67;;
4547;SDS011;2286;51.570;7.090;2024-02-26T07:30:47;3.53;;;3.33;;
4547;SDS011;2286;51.570;7.090;2024-02-26T07:33:14;3.20;;;3.00;;
4547;SDS011;2286;51.570;7.090;2024-02-26T07:35:41;4.93;;;3.50;;
4547;SDS011;2286;51.570;7.090;2024-02-26T07:38:08;3.47;;;3.27;;
4547;SDS011;2286;51.570;7.090;2024-02-26T07:40:35;4.53;;;4.13;;
4547;SDS011;2286;51.570;7.090;2024-02-26T07:43:02;3.20;;;2.90;;
4547;SDS011;2286;51.570;7.090;2024-02-26T07:45:29;3.53;;;3.30;;
4547;SDS011;2286;51.570;7.090;2024-02-26T07:47:57;4.73;;;4.33;;
4547;SDS011;2286;51.570;7.090;2024-02-26T07:50:24;4.03;;;3.63;;
4547;SDS011;2286;51.570;7.090;2024-02-26T07:52:51;3.30;;;3.00;;
4547;SDS011;2286;51.570;7.090;2024-02-26T07:55:19;3.27;;;2.80;;
4547;SDS011;2286;51.570;7.090;2024-02-26T07:57:47;7.07;;;3.93;;
4547;SDS011;2286;51.570;7.090;2024-02-26T08:00:14;3.60;;;3.30;;
4547;SDS011;2286;51.570;7.090;2024-02-26T08:02:42;3.70;;;3.40;;
4547;SDS011;2286;51.570;7.090;2024-02-26T08:05:11;3.80;;;3.20;;
4547;SDS011;2286;51.570;7.090;2024-02-26T08:07:38;3.10;;;2.90;;
4547;SDS011;2286;51.570;7.090;2024-02-26T08:10:05;4.13;;;3.23;;
4547;SDS011;2286;51.570;7.090;2024-02-26T08:12:32;4.20;;;3.10;;
4547;SDS011;2286;51.570;7.090;2024-02-26T08:15:00;9.43;;;7.00;;
4547;SDS011;2286;51.570;7.090;2024-02-26T08:17:27;4.20;;;3.80;;
4547;SDS011;2286;51.570;7.090;2024-02-26T08:19:54;3.40;;;3.10;;
4547;SDS011;2286;51.570;7.090;2024-02-26T08:22:22;4.23;;;3.53;;
4547;SDS011;2286;51.570;7.090;2024-02-26T08:24:49;3.13;;;2.83;;
4547;SDS011;2286;51.570;7.090;2024-02-26T08:27:16;3.60;;;3.30;;
4547;SDS011;2286;51.570;7.090;2024-02-26T08:29:43;2.83;;;2.40;;
4547;SDS011;2286;51.570;7.090;2024-02-26T08:32:11;3.03;;;2.77;;
4547;SDS011;2286;51.570;7.090;2024-02-26T08:34:38;2.90;;;2.70;;
4547;SDS011;2286;51.570;7.090;2024-02-26T08:37:05;2.50;;;2.30;;
4547;SDS011;2286;51.570;7.090;2024-02-26T08:39:34;2.60;;;2.40;;
4547;SDS011;2286;51.570;7.090;2024-02-26T08:42:01;2.33;;;2.23;;
4547;SDS011;2286;51.570;7.090;2024-02-26T08:44:28;2.53;;;2.40;;
4547;SDS011;2286;51.570;7.090;2024-02-26T08:46:55;2.63;;;2.40;;
4547;SDS011;2286;51.570;7.090;2024-02-26T08:49:23;2.57;;;2.33;;
4547;SDS011;2286;51.570;7.090;2024-02-26T08:51:50;2.70;;;2.50;;
4547;SDS011;2286;51.570;7.090;2024-02-26T08:54:17;2.77;;;2.00;;
4547;SDS011;2286;51.570;7.090;2024-02-26T08:56:46;2.37;;;2.00;;
4547;SDS011;2286;51.570;7.090;2024-02-26T08:59:13;2.20;;;2.10;;
4547;SDS011;2286;51.570;7.090;2024-02-26T09:01:41;4.90;;;2.60;;
4547;SDS011;2286;51.570;7.090;2024-02-26T09:04:08;2.30;;;2.20;;
4547;SDS011;2286;51.570;7.090;2024-02-26T09:06:35;2.90;;;2.43;;
4547;SDS011;2286;51.570;7.090;2024-02-26T09:09:02;3.10;;;2.27;;
4547;SDS011;2286;51.570;7.090;2024-02-26T09:11:29;2.63;;;2.43;;
4547;SDS011;2286;51.570;7.090;2024-02-26T09:13:58;2.60;;;2.40;;
4547;SDS011;2286;51.570;7.090;2024-02-26T09:16:25;2.60;;;2.40;;
4547;SDS011;2286;51.570;7.090;2024-02-26T09:18:52;2.63;;;2.40;;
4547;SDS011;2286;51.570;7.090;2024-02-26T09:21:19;5.27;;;2.30;;
4547;SDS011;2286;51.570;7.090;2024-02-26T09:23:48;2.90;;;2.60;;
4547;SDS011;2286;51.570;7.090;2024-02-26T09:26:15;2.60;;;2.40;;
4547;SDS011;2286;51.570;7.090;2024-02-26T09:28:42;2.60;;;2.40;;
4547;SDS011;2286;51.570;7.090;2024-02-26T09:31:11;2.37;;;2.17;;
4547;SDS011;2286;51.570;7.090;2024-02-26T09:33:41;1.90;;;1.80;;
4547;SDS011;2286;51.570;7.090;2024-02-26T09:36:08;2.30;;;2.10;;
4547;SDS011;2286;51.570;7.090;2024-02-26T09:38:36;2.40;;;2.30;;
4547;SDS011;2286;51.570;7.090;2024-02-26T09:41:03;2.73;;;2.53;;
4547;SDS011;2286;51.570;7.090;2024-02-26T09:43:33;2.30;;;2.20;;
4547;SDS011;2286;51.570;7.090;2024-02-26T09:46:01;2.60;;;2.40;;
4547;SDS011;2286;51.570;7.090;2024-02-26T09:48:30;2.57;;;2.37;;
4547;SDS011;2286;51.570;7.090;2024-02-26T09:50:59;2.30;;;2.10;;
4547;SDS011;2286;51.570;7.090;2024-02-26T09:53:28;3.00;;;2.50;;
4547;SDS011;2286;51.570;7.090;2024-02-26T09:55:57;2.67;;;2.47;;
4547;SDS011;2286;51.570;7.090;2024-02-26T09:58:24;2.60;;;2.40;;
4547;SDS011;2286;51.570;7.090;2024-02-26T10:00:53;2.70;;;2.50;;
4547;SDS011;2286;51.570;7.090;2024-02-26T10:03:24;3.30;;;2.50;;
4547;SDS011;2286;51.570;7.090;2024-02-26T10:05:56;2.87;;;2.67;;
4547;SDS011;2286;51.570;7.090;2024-02-26T10:08:23;3.37;;;3.10;;
4547;SDS011;2286;51.570;7.090;2024-02-26T10:10:51;4.40;;;3.83;;
4547;SDS011;2286;51.570;7.090;2024-02-26T10:13:19;2.73;;;2.53;;
4547;SDS011;2286;51.570;7.090;2024-02-26T10:15:46;2.50;;;2.30;;
4547;SDS011;2286;51.570;7.090;2024-02-26T10:18:13;3.60;;;3.30;;
4547;SDS011;2286;51.570;7.090;2024-02-26T10:20:40;3.03;;;2.83;;
4547;SDS011;2286;51.570;7.090;2024-02-26T10:23:08;4.23;;;2.60;;
4547;SDS011;2286;51.570;7.090;2024-02-26T10:25:36;4.50;;;2.83;;
4547;SDS011;2286;51.570;7.090;2024-02-26T10:28:03;3.83;;;3.40;;
4547;SDS011;2286;51.570;7.090;2024-02-26T10:30:30;2.80;;;2.60;;
4547;SDS011;2286;51.570;7.090;2024-02-26T10:32:57;3.30;;;2.93;;
4547;SDS011;2286;51.570;7.090;2024-02-26T10:35:25;3.00;;;2.77;;
4547;SDS011;2286;51.570;7.090;2024-02-26T10:37:53;2.67;;;2.50;;
4547;SDS011;2286;51.570;7.090;2024-02-26T10:40:22;3.00;;;2.80;;
4547;SDS011;2286;51.570;7.090;2024-02-26T10:42:49;3.00;;;2.70;;
4547;SDS011;2286;51.570;7.090;2024-02-26T10:45:16;2.83;;;2.63;;
4547;SDS011;2286;51.570;7.090;2024-02-26T10:47:43;3.00;;;2.80;;
4547;SDS011;2286;51.570;7.090;2024-02-26T10:50:12;2.80;;;2.60;;
4547;SDS011;2286;51.570;7.090;2024-02-26T10:52:42;2.70;;;2.60;;
4547;SDS011;2286;51.570;7.090;2024-02-26T10:55:10;3.30;;;3.00;;
4547;SDS011;2286;51.570;7.090;2024-02-26T10:57:44;3.50;;;3.20;;
4547;SDS011;2286;51.570;7.090;2024-02-26T11:00:13;3.13;;;2.93;;
4547;SDS011;2286;51.570;7.090;2024-02-26T11:02:41;4.10;;;3.53;;
4547;SDS011;2286;51.570;7.090;2024-02-26T11:05:10;3.30;;;2.73;;
4547;SDS011;2286;51.570;7.090;2024-02-26T11:07:38;4.00;;;3.30;;
4547;SDS011;2286;51.570;7.090;2024-02-26T11:10:08;4.70;;;4.10;;
4547;SDS011;2286;51.570;7.090;2024-02-26T11:12:37;4.73;;;3.93;;
4547;SDS011;2286;51.570;7.090;2024-02-26T11:15:07;5.27;;;4.00;;
4547;SDS011;2286;51.570;7.090;2024-02-26T11:17:35;4.83;;;4.27;;
4547;SDS011;2286;51.570;7.090;2024-02-26T11:20:04;4.50;;;3.90;;
4547;SDS011;2286;51.570;7.090;2024-02-26T11:22:36;4.57;;;4.10;;
4547;SDS011;2286;51.570;7.090;2024-02-26T11:25:03;4.20;;;3.90;;
4547;SDS011;2286;51.570;7.090;2024-02-26T11:27:32;5.07;;;4.67;;
4547;SDS011;2286;51.570;7.090;2024-02-26T11:30:04;4.90;;;4.50;;
4547;SDS011;2286;51.570;7.090;2024-02-26T11:32:35;5.50;;;5.00;;
4547;SDS011;2286;51.570;7.090;2024-02-26T11:35:03;6.67;;;5.60;;
4547;SDS011;2286;51.570;7.090;2024-02-26T11:37:32;6.93;;;5.83;;
4547;SDS011;2286;51.570;7.090;2024-02-26T11:39:59;4.83;;;4.43;;
4547;SDS011;2286;51.570;7.090;2024-02-26T11:42:26;6.43;;;5.80;;
4547;SDS011;2286;51.570;7.090;2024-02-26T11:44:55;5.87;;;4.90;;
4547;SDS011;2286;51.570;7.090;2024-02-26T11:47:26;5.07;;;4.67;;
4547;SDS011;2286;51.570;7.090;2024-02-26T11:49:53;5.73;;;5.20;;
4547;SDS011;2286;51.570;7.090;2024-02-26T11:52:20;5.50;;;5.10;;
4547;SDS011;2286;51.570;7.090;2024-02-26T11:54:48;6.53;;;5.20;;
4547;SDS011;2286;51.570;7.090;2024-02-26T11:57:21;6.67;;;5.90;;
4547;SDS011;2286;51.570;7.090;2024-02-26T11:59:48;6.30;;;5.80;;
4547;SDS011;2286;51.570;7.090;2024-02-26T12:05:14;6.43;;;5.80;;
4547;SDS011;2286;51.570;7.090;2024-02-26T12:07:43;6.60;;;5.50;;
4547;SDS011;2286;51.570;7.090;2024-02-26T12:10:15;6.30;;;5.30;;
4547;SDS011;2286;51.570;7.090;2024-02-26T12:12:59;11.53;;;9.17;;
4547;SDS011;2286;51.570;7.090;2024-02-26T12:15:31;11.63;;;9.50;;
4547;SDS011;2286;51.570;7.090;2024-02-26T12:18:01;9.00;;;6.70;;
4547;SDS011;2286;51.570;7.090;2024-02-26T12:20:30;6.77;;;5.97;;
4547;SDS011;2286;51.570;7.090;2024-02-26T12:22:58;5.87;;;5.33;;
4547;SDS011;2286;51.570;7.090;2024-02-26T12:25:26;10.40;;;8.10;;
4547;SDS011;2286;51.570;7.090;2024-02-26T12:27:54;8.00;;;6.33;;
4547;SDS011;2286;51.570;7.090;2024-02-26T12:30:22;6.50;;;5.50;;
4547;SDS011;2286;51.570;7.090;2024-02-26T12:32:50;6.10;;;5.50;;
4547;SDS011;2286;51.570;7.090;2024-02-26T12:35:23;7.33;;;5.03;;
4547;SDS011;2286;51.570;7.090;2024-02-26T12:37:51;5.10;;;4.57;;
4547;SDS011;2286;51.570;7.090;2024-02-26T12:40:18;5.07;;;4.67;;
4547;SDS011;2286;51.570;7.090;2024-02-26T12:42:46;4.40;;;3.83;;
4547;SDS011;2286;51.570;7.090;2024-02-26T12:45:14;5.47;;;4.63;;
4547;SDS011;2286;51.570;7.090;2024-02-26T12:47:42;7.40;;;4.67;;
4547;SDS011;2286;51.570;7.090;2024-02-26T12:50:10;5.17;;;4.77;;
4547;SDS011;2286;51.570;7.090;2024-02-26T12:52:40;4.40;;;4.00;;
4547;SDS011;2286;51.570;7.090;2024-02-26T12:55:09;4.40;;;4.00;;
4547;SDS011;2286;51.570;7.090;2024-02-26T12:57:40;5.27;;;4.30;;
4547;SDS011;2286;51.570;7.090;2024-02-26T13:00:11;4.47;;;3.83;;
4547;SDS011;2286;51.570;7.090;2024-02-26T13:02:40;4.53;;;4.13;;
4547;SDS011;2286;51.570;7.090;2024-02-26T13:05:10;5.03;;;4.43;;
4547;SDS011;2286;51.570;7.090;2024-02-26T13:07:45;5.67;;;5.17;;
4547;SDS011;2286;51.570;7.090;2024-02-26T13:10:13;4.10;;;3.80;;
4547;SDS011;2286;51.570;7.090;2024-02-26T13:12:43;3.60;;;3.30;;
4547;SDS011;2286;51.570;7.090;2024-02-26T13:15:13;4.27;;;3.87;;
4547;SDS011;2286;51.570;7.090;2024-02-26T13:17:41;4.13;;;3.80;;
4547;SDS011;2286;51.570;7.090;2024-02-26T13:20:09;3.40;;;3.10;;
4547;SDS011;2286;51.570;7.090;2024-02-26T13:22:36;3.50;;;3.20;;
4547;SDS011;2286;51.570;7.090;2024-02-26T13:25:05;4.17;;;3.40;;
4547;SDS011;2286;51.570;7.090;2024-02-26T13:27:33;4.40;;;4.00;;
4547;SDS011;2286;51.570;7.090;2024-02-26T13:30:04;3.70;;;3.17;;
4547;SDS011;2286;51.570;7.090;2024-02-26T13:32:35;5.07;;;3.80;;
4547;SDS011;2286;51.570;7.090;2024-02-26T13:35:07;3.60;;;3.30;;
4547;SDS011;2286;51.570;7.090;2024-02-26T13:37:35;3.43;;;3.20;;
4547;SDS011;2286;51.570;7.090;2024-02-26T13:40:06;3.93;;;3.53;;
4547;SDS011;2286;51.570;7.090;2024-02-26T13:42:34;5.43;;;3.67;;
4547;SDS011;2286;51.570;7.090;2024-02-26T13:45:01;4.50;;;3.60;;
4547;SDS011;2286;51.570;7.090;2024-02-26T13:47:31;4.30;;;3.73;;
4547;SDS011;2286;51.570;7.090;2024-02-26T13:49:58;3.53;;;3.17;;
4547;SDS011;2286;51.570;7.090;2024-02-26T13:52:25;3.90;;;3.60;;
4547;SDS011;2286;51.570;7.090;2024-02-26T13:54:52;3.73;;;3.17;;
4547;SDS011;2286;51.570;7.090;2024-02-26T13:57:21;2.93;;;2.73;;
4547;SDS011;2286;51.570;7.090;2024-02-26T13:59:48;4.17;;;3.87;;
4547;SDS011;2286;51.570;7.090;2024-02-26T14:02:16;4.27;;;3.30;;
4547;SDS011;2286;51.570;7.090;2024-02-26T14:04:43;3.37;;;3.07;;
4547;SDS011;2286;51.570;7.090;2024-02-26T14:07:11;4.60;;;3.50;;
4547;SDS011;2286;51.570;7.090;2024-02-26T14:09:38;3.37;;;3.17;;
4547;SDS011;2286;51.570;7.090;2024-02-26T14:12:05;3.37;;;3.03;;
4547;SDS011;2286;51.570;7.090;2024-02-26T14:14:34;3.80;;;3.30;;
4547;SDS011;2286;51.570;7.090;2024-02-26T14:17:03;4.27;;;3.83;;
4547;SDS011;2286;51.570;7.090;2024-02-26T14:19:31;6.47;;;5.90;;
4547;SDS011;2286;51.570;7.090;2024-02-26T14:21:58;3.37;;;3.07;;
4547;SDS011;2286;51.570;7.090;2024-02-26T14:24:24;3.53;;;3.23;;
4547;SDS011;2286;51.570;7.090;2024-02-26T14:26:52;3.50;;;3.20;;
4547;SDS011;2286;51.570;7.090;2024-02-26T14:29:20;3.60;;;3.40;;
4547;SDS011;2286;51.570;7.090;2024-02-26T14:31:48;3.37;;;3.10;;
4547;SDS011;2286;51.570;7.090;2024-02-26T14:34:15;3.10;;;2.90;;
4547;SDS011;2286;51.570;7.090;2024-02-26T14:36:44;3.67;;;3.23;;
4547;SDS011;2286;51.570;7.090;2024-02-26T14:39:11;3.30;;;3.00;;
4547;SDS011;2286;51.570;7.090;2024-02-26T14:41:38;3.30;;;3.10;;
4547;SDS011;2286;51.570;7.090;2024-02-26T14:44:06;3.10;;;2.90;;
4547;SDS011;2286;51.570;7.090;2024-02-26T14:46:33;3.20;;;2.90;;
4547;SDS011;2286;51.570;7.090;2024-02-26T14:49:01;3.27;;;3.07;;
4547;SDS011;2286;51.570;7.090;2024-02-26T14:51:28;3.47;;;3.10;;
4547;SDS011;2286;51.570;7.090;2024-02-26T14:53:55;3.27;;;3.03;;
4547;SDS011;2286;51.570;7.090;2024-02-26T14:56:24;2.97;;;2.73;;
4547;SDS011;2286;51.570;7.090;2024-02-26T14:58:51;3.23;;;2.93;;
4547;SDS011;2286;51.570;7.090;2024-02-26T15:01:18;4.13;;;3.20;;
4547;SDS011;2286;51.570;7.090;2024-02-26T15:03:45;3.20;;;2.93;;
4547;SDS011;2286;51.570;7.090;2024-02-26T15:06:14;2.63;;;2.43;;
4547;SDS011;2286;51.570;7.090;2024-02-26T15:08:41;3.00;;;2.80;;
4547;SDS011;2286;51.570;7.090;2024-02-26T15:11:08;3.40;;;3.10;;
4547;SDS011;2286;51.570;7.090;2024-02-26T15:13:35;3.40;;;3.20;;
4547;SDS011;2286;51.570;7.090;2024-02-26T15:16:03;3.23;;;2.87;;
4547;SDS011;2286;51.570;7.090;2024-02-26T15:18:30;3.20;;;2.90;;
4547;SDS011;2286;51.570;7.090;2024-02-26T15:20:57;2.90;;;2.37;;